Latest Weather Observations for Roxby Downs

IDS60801

Issued at 8:32 am CST Sunday 26 April 2015 (issued every 30 minutes, with the page automatically refreshed every 10 minutes)

About weather observations | Map of weather stations | Latest weather observations for SA | Other Formats
Station Details ID: 016096 Name: OLYMPIC DAM AERODROME Lat: -30.48 Lon: 136.88 Height: 98.5 m
Data from the previous 72 hours. | See also: Recent months at Roxby Downs
Date/Time
CST
Temp
°C
App
Temp
°C
Dew
Point
Rel
Hum
%
Delta-T
°C
Wind Press
QNH
hPa
Press
MSL
hPa
Rain
since 9 am
mm
Dir
 
Spd
km/h
Gust
km/h
Spd
kts
Gust
kts
26/08:30am 14.3 11.0 9.5 73 2.5 S 17 22 9 12 1025.7 1025.5 0.0
26/08:00am 13.9 11.5 9.9 77 2.1 S 13 19 7 10 1025.4 1025.2 0.0
26/07:30am 12.8 11.6 10.2 84 1.3 S 7 9 4 5 1024.8 1024.6 0.0
26/07:00am 12.6 10.6 10.3 86 1.2 S 11 13 6 7 1024.5 1024.3 0.0
26/06:30am 13.5 11.2 10.5 82 1.6 SSE 13 17 7 9 1024.2 1024.0 0.0
26/06:00am 13.7 11.0 10.5 81 1.7 S 15 19 8 10 1024.0 1023.8 0.0
26/05:30am 13.8 10.7 10.4 80 1.8 S 17 24 9 13 1023.6 1023.4 0.0
26/05:00am 13.8 10.4 10.4 80 1.8 S 19 28 10 15 1023.5 1023.3 0.0
26/04:30am 13.9 11.2 10.5 80 1.8 SSW 15 22 8 12 1023.1 1022.9 0.0
26/04:00am 13.9 11.2 10.5 80 1.8 S 15 24 8 13 1022.8 1022.6 0.0
26/03:30am 14.0 10.6 10.4 79 1.9 S 19 26 10 14 1022.5 1022.3 0.0
26/03:00am 14.0 11.0 10.6 80 1.8 S 17 20 9 11 1022.5 1022.3 0.0
26/02:30am 14.1 10.7 10.5 79 1.9 SSW 19 24 10 13 1022.4 1022.2 0.0
26/02:00am 14.2 11.1 10.4 78 2.0 S 17 24 9 13 1022.3 1022.0 0.0
26/01:30am 14.5 10.9 10.5 77 2.1 S 20 30 11 16 1022.2 1021.9 0.0
26/01:00am 14.8 11.3 10.8 77 2.1 S 20 28 11 15 1022.3 1022.0 0.0
26/12:30am 15.3 11.9 11.1 76 2.2 SSW 20 32 11 17 1022.1 1021.8 0.0
26/12:00am 15.3 11.9 11.1 76 2.2 SSW 20 26 11 14 1022.2 1021.9 0.0
 
Date/Time
CST
Temp
°C
App
Temp
°C
Dew
Point
Rel
Hum
%
Delta-T
°C
Wind Press
QNH
hPa
Press
MSL
hPa
Rain
since 9 am
mm
Dir
 
Spd
km/h
Gust
km/h
Spd
kts
Gust
kts
25/11:30pm 15.4 12.1 11.0 75 2.3 SSW 19 26 10 14 1022.4 1022.2 0.0
25/11:00pm 15.5 12.6 11.1 75 2.4 SSW 17 24 9 13 1022.4 1022.2 0.0
25/10:30pm 15.5 12.0 10.9 74 2.4 SSW 20 26 11 14 1022.4 1022.2 0.0
25/10:00pm 15.7 12.4 10.9 73 2.6 SSW 19 24 10 13 1022.0 1021.7 0.0
25/09:30pm 15.5 12.2 10.9 74 2.4 SW 19 28 10 15 1021.8 1021.5 0.0
25/09:00pm 15.6 12.1 10.8 73 2.6 SW 20 26 11 14 1021.3 1021.0 0.0
25/08:30pm 16.0 12.1 10.7 71 2.8 SW 22 30 12 16 1020.8 1020.5 0.0
25/08:00pm 16.3 12.5 11.0 71 2.9 SW 22 30 12 16 1020.4 1020.1 0.0
25/07:30pm 16.4 12.9 10.9 70 2.9 SW 20 26 11 14 1020.0 1019.7 0.0
25/07:00pm 16.6 13.2 10.7 68 3.2 SW 19 28 10 15 1019.6 1019.3 0.0
25/06:30pm 16.9 13.2 10.3 65 3.5 SW 20 28 11 15 1019.2 1018.9 0.0
25/06:00pm 17.5 13.9 10.4 63 3.8 SW 20 28 11 15 1018.9 1018.6 0.0
25/05:30pm 17.8 13.8 10.4 62 4.0 SW 22 32 12 17 1018.6 1018.3 0.0
25/05:00pm 17.8 12.8 11.1 65 3.6 SW 28 37 15 20 1018.4 1018.1 0.0
25/04:54pm 17.9 13.0 11.2 65 3.7 SW 28 37 15 20 1018.3 1018.0 0.0
25/04:42pm 18.0 12.2 11.6 66 3.5 SW 33 48 18 26 1018.2 1017.9 0.0
25/04:30pm 19.7 12.9 9.3 51 5.5 SW 35 44 19 24 1017.9 1017.6 0.0
25/04:00pm 19.7 13.9 9.6 52 5.4 SW 30 39 16 21 1017.8 1017.5 0.0
25/03:30pm 20.1 14.3 9.4 50 5.7 SW 30 43 16 23 1017.7 1017.4 0.0
25/03:00pm 19.4 12.8 9.9 54 5.1 SW 35 48 19 26 1017.5 1017.2 0.0
25/02:30pm 18.6 12.7 10.4 59 4.4 SW 32 54 17 29 1017.5 1017.2 0.0
25/02:21pm 18.3 12.6 11.1 63 3.9 SW 32 54 17 29 1017.4 1017.1 0.0
25/02:00pm 19.1 11.9 9.0 52 5.3 SSW 37 54 20 29 1017.3 1017.0 0.0
25/01:30pm 19.5 13.0 8.8 50 5.6 SW 33 48 18 26 1017.3 1017.0 0.0
25/01:06pm 19.0 11.7 8.9 52 5.3 SW 37 57 20 31 1017.5 1017.2 0.0
25/01:00pm 18.7 11.9 9.2 54 5.0 SW 35 48 19 26 1017.5 1017.2 0.0
25/12:30pm 18.3 10.7 9.1 55 4.8 SW 39 50 21 27 1017.6 1017.3 0.0
25/12:00pm 18.5 11.2 8.7 53 5.1 SW 37 52 20 28 1017.8 1017.5 0.0
25/11:33am 17.7 10.7 8.6 55 4.7 SW 35 54 19 29 1018.1 1017.8 0.0
25/11:30am 17.5 11.0 8.9 57 4.5 SW 33 48 18 26 1018.1 1017.8 0.0
25/11:11am 17.3 10.9 8.4 56 4.6 SW 32 50 17 27 1018.2 1017.9 0.0
25/11:00am 17.1 10.1 8.5 57 4.4 SW 35 46 19 25 1018.2 1017.9 0.0
25/10:37am 16.7 10.3 8.7 59 4.1 SW 32 50 17 27 1018.3 1018.0 0.0
25/10:30am 16.5 9.5 8.5 59 4.1 SW 35 50 19 27 1018.2 1017.9 0.0
25/10:00am 16.0 9.9 8.2 60 4.0 SW 30 41 16 22 1018.2 1017.9 0.0
25/09:30am 15.2 8.7 8.0 62 3.6 WSW 32 46 17 25 1017.9 1017.6 0.0
25/09:00am 14.5 8.7 7.8 64 3.3 WSW 28 41 15 22 1017.7 1017.4 0.0
25/08:32am 13.5 7.6 7.5 67 3.0 WSW 28 46 15 25 1017.6 1017.3 0.0
25/08:30am 13.6 7.7 7.6 67 3.0 WSW 28 39 15 21 1017.6 1017.3 0.0
25/08:00am 12.6 7.5 7.5 71 2.5 WSW 24 33 13 18 1017.2 1016.9 0.0
25/07:30am 11.7 6.1 7.2 74 2.2 W 26 35 14 19 1016.6 1016.3 0.0
25/07:00am 11.1 6.3 7.2 77 1.9 W 22 33 12 18 1016.4 1016.1 0.0
25/06:30am 11.1 5.8 7.0 76 2.0 W 24 33 13 18 1015.7 1015.5 0.0
25/06:00am 11.0 6.1 6.9 76 2.0 W 22 32 12 17 1015.4 1015.2 0.0
25/05:30am 11.0 6.1 6.7 75 2.0 W 22 28 12 15 1015.2 1015.0 0.0
25/05:00am 11.0 6.1 6.7 75 2.0 W 22 30 12 16 1015.0 1014.8 0.0
25/04:30am 11.1 5.8 6.6 74 2.1 W 24 37 13 20 1014.9 1014.7 0.0
25/04:00am 11.3 6.3 6.6 73 2.2 W 22 33 12 18 1014.9 1014.7 0.0
25/03:30am 11.3 6.3 6.4 72 2.3 W 22 30 12 16 1015.0 1014.8 0.0
25/03:00am 11.4 6.7 6.1 70 2.5 W 20 30 11 16 1015.2 1015.0 0.0
25/02:30am 11.7 6.2 6.0 68 2.7 W 24 33 13 18 1015.2 1015.0 0.0
25/02:00am 11.6 6.9 5.9 68 2.7 W 20 30 11 16 1015.2 1015.0 0.0
25/01:30am 11.8 6.6 5.7 66 2.8 W 22 30 12 16 1015.3 1015.1 0.0
25/01:00am 12.0 7.2 5.6 65 3.0 W 20 32 11 17 1015.5 1015.3 0.0
25/12:30am 12.2 7.4 5.6 64 3.1 W 20 32 11 17 1015.7 1015.5 0.0
25/12:00am 12.4 6.8 5.3 62 3.3 W 24 32 13 17 1015.6 1015.4 0.0
 
Date/Time
CST
Temp
°C
App
Temp
°C
Dew
Point
Rel
Hum
%
Delta-T
°C
Wind Press
QNH
hPa
Press
MSL
hPa
Rain
since 9 am
mm
Dir
 
Spd
km/h
Gust
km/h
Spd
kts
Gust
kts
24/11:30pm 12.4 7.5 5.1 61 3.4 W 20 28 11 15 1015.8 1015.6 0.0
24/11:00pm 12.5 7.8 5.0 60 3.5 W 19 28 10 15 1016.1 1015.8 0.0
24/10:30pm 13.0 7.6 4.7 57 3.8 WSW 22 35 12 19 1016.1 1015.8 0.0
24/10:00pm 13.4 7.3 4.6 55 4.1 WSW 26 35 14 19 1016.2 1015.9 0.0
24/09:30pm 13.5 8.2 4.9 56 4.0 WSW 22 33 12 18 1016.2 1015.9 0.0
24/09:00pm 13.7 7.6 4.6 54 4.2 WSW 26 35 14 19 1015.8 1015.6 0.0
24/08:30pm 14.2 6.8 4.2 51 4.6 WSW 32 44 17 24 1015.7 1015.5 0.0
24/08:12pm 14.7 7.3 4.1 49 4.9 SW 32 52 17 28 1015.7 1015.5 0.0
24/08:00pm 14.8 8.0 5.1 52 4.6 SW 30 44 16 24 1015.7 1015.5 0.0
24/07:30pm 15.7 8.2 4.4 47 5.3 WSW 33 44 18 24 1015.1 1014.9 0.0
24/07:17pm 16.1 8.7 4.2 45 5.6 WSW 32 50 17 27 1014.9 1014.7 0.0
24/07:00pm 16.6 9.1 4.3 44 5.8 WSW 33 46 18 25 1014.6 1014.4 0.0
24/06:30pm 16.7 10.9 4.4 44 5.8 WSW 24 33 13 18 1014.2 1014.0 0.0
24/06:00pm 16.9 9.9 4.3 43 5.9 SW 30 41 16 22 1013.9 1013.7 0.0
24/05:30pm 17.3 9.9 3.9 41 6.3 WSW 32 46 17 25 1013.5 1013.2 0.0
24/05:00pm 17.9 10.3 4.1 40 6.5 WSW 33 48 18 26 1013.2 1012.9 0.0
24/04:46pm 18.4 10.5 4.6 40 6.6 WSW 35 54 19 29 1013.1 1012.8 0.0
24/04:30pm 18.3 10.2 5.2 42 6.4 WSW 37 48 20 26 1012.9 1012.6 0.0
24/04:00pm 18.6 11.1 6.1 44 6.2 SW 35 46 19 25 1012.9 1012.6 0.0
24/03:30pm 19.0 12.2 7.8 48 5.8 SW 33 46 18 25 1012.7 1012.4 0.0
24/03:00pm 18.9 11.7 7.7 48 5.7 WSW 35 50 19 27 1012.8 1012.5 0.0
24/02:30pm 18.8 12.1 9.6 55 4.9 SW 35 52 19 28 1012.4 1012.1 0.0
24/02:20pm 19.5 13.5 10.2 55 5.0 SW 32 50 17 27 1012.4 1012.1 0.0
24/02:00pm 19.4 13.2 10.1 55 5.0 SW 33 46 18 25 1012.3 1012.0 0.0
24/01:30pm 19.2 12.4 10.7 58 4.6 SW 37 48 20 26 1012.5 1012.2 0.0
24/01:20pm 20.4 14.1 9.6 50 5.8 WSW 33 52 18 28 1012.5 1012.2 0.0
24/01:00pm 20.9 14.2 9.5 48 6.1 WSW 35 46 19 25 1012.6 1012.3 0.0
24/12:30pm 21.6 15.4 9.2 45 6.6 WSW 32 44 17 24 1012.8 1012.5 0.0
24/12:00pm 21.0 15.9 9.3 47 6.3 W 26 39 14 21 1013.2 1012.9 0.0
24/11:30am 19.5 14.3 10.2 55 5.0 WSW 28 43 15 23 1013.8 1013.6 0.0
24/11:00am 18.6 13.5 10.7 60 4.3 WSW 28 39 15 21 1014.3 1014.1 0.0
24/10:30am 17.9 13.9 10.5 62 4.0 W 22 32 12 17 1014.2 1014.0 0.0
24/10:00am 17.5 13.2 10.6 64 3.7 WSW 24 33 13 18 1014.3 1014.1 0.0
24/09:30am 17.5 14.1 10.6 64 3.7 WSW 19 28 10 15 1014.5 1014.3 0.0
24/09:00am 16.4 13.3 10.3 67 3.2 WSW 17 20 9 11 1014.4 1014.2 0.0
24/08:30am 15.0 12.1 9.6 70 2.8 WSW 15 20 8 11 1014.3 1014.1 0.0
24/08:00am 13.9 11.3 9.5 75 2.3 WSW 13 19 7 10 1014.3 1014.1 0.0
24/07:30am 12.7 10.5 9.2 79 1.8 W 11 15 6 8 1014.1 1013.9 0.0
24/07:00am 11.9 9.1 8.6 80 1.6 WSW 13 17 7 9 1013.8 1013.6 0.0
24/06:30am 11.7 9.3 8.6 81 1.5 W 11 13 6 7 1013.2 1012.9 0.0
24/06:00am 11.8 9.8 8.5 80 1.6 W 9 11 5 6 1012.9 1012.6 0.0
24/05:30am 11.8 9.4 8.8 82 1.5 W 11 13 6 7 1013.0 1012.7 0.0
24/05:00am 11.8 9.8 8.6 81 1.6 W 9 11 5 6 1012.9 1012.6 0.0
24/04:30am 12.5 9.8 9.0 79 1.8 WSW 13 15 7 8 1013.0 1012.7 0.0
24/04:00am 12.2 9.9 9.0 81 1.6 WSW 11 13 6 7 1013.1 1012.8 0.0
24/03:30am 12.3 10.0 9.0 80 1.7 W 11 13 6 7 1013.0 1012.7 0.0
24/03:00am 12.8 10.5 9.1 78 1.9 W 11 13 6 7 1013.4 1013.1 0.0
24/02:30am 13.0 11.1 9.1 77 2.0 W 9 11 5 6 1013.2 1012.9 0.0
24/02:00am 13.9 12.1 9.3 74 2.4 W 9 9 5 5 1013.3 1013.0 0.0
24/01:30am 13.8 12.3 9.0 73 2.4 WSW 7 9 4 5 1013.5 1013.2 0.0
24/01:00am 14.8 12.9 9.2 69 2.9 WSW 9 13 5 7 1013.6 1013.3 0.0
24/12:30am 15.3 13.5 9.4 68 3.1 WSW 9 11 5 6 1013.7 1013.5 0.0
24/12:00am 15.8 13.9 9.2 65 3.4 W 9 9 5 5 1013.9 1013.7 0.0
 
Date/Time
CST
Temp
°C
App
Temp
°C
Dew
Point
Rel
Hum
%
Delta-T
°C
Wind Press
QNH
hPa
Press
MSL
hPa
Rain
since 9 am
mm
Dir
 
Spd
km/h
Gust
km/h
Spd
kts
Gust
kts
23/11:30pm 16.2 14.3 9.2 63 3.6 W 9 11 5 6 1014.1 1013.9 0.0
23/11:00pm 16.1 14.3 9.3 64 3.5 WNW 9 9 5 5 1014.4 1014.2 0.0
23/10:30pm 15.7 14.5 10.2 70 2.9 W 7 7 4 4 1014.7 1014.5 0.0
23/10:00pm 15.7 14.7 10.2 70 2.9 WSW 6 7 3 4 1014.9 1014.7 0.0
23/09:30pm 16.1 15.0 10.8 71 2.8 SW 7 7 4 4 1015.1 1014.9 0.0
23/09:00pm 16.3 15.2 10.8 70 2.9 SSW 7 9 4 5 1015.1 1014.9 0.0
23/08:30pm 17.0 15.5 9.2 60 4.1 SSW 7 7 4 4 1015.2 1015.0 0.0
23/08:00pm 17.4 16.0 8.8 57 4.5 S 6 7 3 4 1015.3 1015.1 0.0
23/07:30pm 18.1 16.4 8.4 53 5.0 S 7 9 4 5 1015.2 1015.0 0.0
23/07:00pm 19.1 17.4 8.4 50 5.6 S 7 11 4 6 1015.1 1014.9 0.0
23/06:30pm 19.7 16.8 8.1 47 6.0 S 13 17 7 9 1014.8 1014.6 0.0
23/06:00pm 20.3 16.9 7.7 44 6.5 SSW 15 19 8 10 1014.7 1014.5 0.0
23/05:30pm 20.8 17.3 7.1 41 7.0 SW 15 20 8 11 1014.6 1014.4 0.0
23/05:00pm 21.0 17.0 6.5 39 7.4 SW 17 22 9 12 1014.7 1014.5 0.0
23/04:30pm 21.4 18.1 6.5 38 7.6 SW 13 17 7 9 1014.4 1014.2 0.0
23/04:00pm 21.4 17.8 6.9 39 7.4 SW 15 22 8 12 1014.4 1014.2 0.0
23/03:30pm 21.3 18.3 7.9 42 7.0 SW 13 19 7 10 1014.5 1014.3 0.0
23/03:00pm 21.5 18.3 8.4 43 6.9 WSW 15 24 8 13 1014.9 1014.7 0.0
23/02:30pm 21.3 18.1 8.6 44 6.7 WSW 15 24 8 13 1015.2 1015.0 0.0
23/02:00pm 20.9 18.1 8.5 45 6.5 WSW 13 19 7 10 1015.7 1015.5 0.0
23/01:30pm 20.7 17.5 8.4 45 6.5 WSW 15 20 8 11 1016.4 1016.1 0.0
23/01:00pm 19.9 17.2 8.9 49 5.8 WSW 13 19 7 10 1016.8 1016.5 0.0
23/12:30pm 19.8 17.5 9.1 50 5.7 W 11 17 6 9 1017.5 1017.2 0.0
23/12:00pm 19.3 17.4 9.2 52 5.3 SW 9 20 5 11 1017.7 1017.4 0.0
23/11:30am 18.8 17.5 9.3 54 5.0 WSW 6 9 3 5 1018.2 1017.9 0.0
23/11:00am 18.4 17.2 9.7 57 4.6 SSW 6 11 3 6 1018.9 1018.6 0.0
23/10:30am 17.7 16.6 9.8 60 4.2 SW 6 9 3 5 1019.2 1018.9 0.0
23/10:00am 17.2 16.1 9.9 62 3.9 SSW 6 9 3 5 1019.2 1018.9 0.0
23/09:30am 16.8 15.6 9.7 63 3.7 W 6 11 3 6 1019.3 1019.0 0.0
23/09:00am 15.9 14.8 10.0 68 3.1 S 6 7 3 4 1019.1 1018.8 0.0

Other Formats:

Comma delimited format used in spreadsheet applications
http://www.bom.gov.au/fwo/IDS60801/IDS60801.95658.axf

JavaScript Object Notation format (JSON) in row-major order
http://www.bom.gov.au/fwo/IDS60801/IDS60801.95658.json